sensor_id;sensor_type;location;lat;lon;timestamp;temperature;humidity
18502;DHT22;68437;52.236;5.710;2024-02-28T00:02:04;3.20;99.90
18502;DHT22;68437;52.236;5.710;2024-02-28T00:04:30;3.20;99.90
18502;DHT22;68437;52.236;5.710;2024-02-28T00:06:56;3.20;99.90
18502;DHT22;68437;52.236;5.710;2024-02-28T00:09:24;3.20;99.90
18502;DHT22;68437;52.236;5.710;2024-02-28T00:11:50;3.20;99.90
18502;DHT22;68437;52.236;5.710;2024-02-28T00:14:17;3.30;99.90
18502;DHT22;68437;52.236;5.710;2024-02-28T00:16:45;3.30;99.90
18502;DHT22;68437;52.236;5.710;2024-02-28T00:19:14;3.20;99.90
18502;DHT22;68437;52.236;5.710;2024-02-28T00:21:43;3.20;99.90
18502;DHT22;68437;52.236;5.710;2024-02-28T00:24:10;3.20;99.90
18502;DHT22;68437;52.236;5.710;2024-02-28T00:26:40;3.20;99.90
18502;DHT22;68437;52.236;5.710;2024-02-28T00:29:07;3.20;99.90
18502;DHT22;68437;52.236;5.710;2024-02-28T00:31:33;3.30;99.90
18502;DHT22;68437;52.236;5.710;2024-02-28T00:34:00;3.30;99.90
18502;DHT22;68437;52.236;5.710;2024-02-28T00:36:27;3.30;99.90
18502;DHT22;68437;52.236;5.710;2024-02-28T00:38:54;3.30;99.90
18502;DHT22;68437;52.236;5.710;2024-02-28T00:41:21;3.30;99.90
18502;DHT22;68437;52.236;5.710;2024-02-28T00:43:48;3.30;99.90
18502;DHT22;68437;52.236;5.710;2024-02-28T00:46:14;3.30;99.90
18502;DHT22;68437;52.236;5.710;2024-02-28T00:48:41;3.40;99.90
18502;DHT22;68437;52.236;5.710;2024-02-28T00:51:08;3.30;99.90
18502;DHT22;68437;52.236;5.710;2024-02-28T00:53:36;3.30;99.90
18502;DHT22;68437;52.236;5.710;2024-02-28T00:56:04;3.30;99.90
18502;DHT22;68437;52.236;5.710;2024-02-28T00:58:31;3.40;99.90
18502;DHT22;68437;52.236;5.710;2024-02-28T01:00:58;3.30;99.90
18502;DHT22;68437;52.236;5.710;2024-02-28T01:03:25;3.30;99.90
18502;DHT22;68437;52.236;5.710;2024-02-28T01:05:52;3.20;99.90
18502;DHT22;68437;52.236;5.710;2024-02-28T01:08:18;3.30;99.90
18502;DHT22;68437;52.236;5.710;2024-02-28T01:10:47;3.20;99.90
18502;DHT22;68437;52.236;5.710;2024-02-28T01:13:13;3.20;99.90
18502;DHT22;68437;52.236;5.710;2024-02-28T01:15:43;3.20;99.90
18502;DHT22;68437;52.236;5.710;2024-02-28T01:18:10;3.20;99.90
18502;DHT22;68437;52.236;5.710;2024-02-28T01:20:35;3.10;99.90
18502;DHT22;68437;52.236;5.710;2024-02-28T01:23:03;3.20;99.90
18502;DHT22;68437;52.236;5.710;2024-02-28T01:25:29;3.10;99.90
18502;DHT22;68437;52.236;5.710;2024-02-28T01:27:58;3.10;99.90
18502;DHT22;68437;52.236;5.710;2024-02-28T01:30:25;3.10;99.90
18502;DHT22;68437;52.236;5.710;2024-02-28T01:32:52;3.10;99.90
18502;DHT22;68437;52.236;5.710;2024-02-28T01:35:19;3.10;99.90
18502;DHT22;68437;52.236;5.710;2024-02-28T01:37:45;3.10;99.90
18502;DHT22;68437;52.236;5.710;2024-02-28T01:40:13;3.00;99.90
18502;DHT22;68437;52.236;5.710;2024-02-28T01:42:39;3.10;99.90
18502;DHT22;68437;52.236;5.710;2024-02-28T01:45:10;3.00;99.90
18502;DHT22;68437;52.236;5.710;2024-02-28T01:47:42;3.10;99.90
18502;DHT22;68437;52.236;5.710;2024-02-28T01:50:09;3.10;99.90
18502;DHT22;68437;52.236;5.710;2024-02-28T01:52:37;3.10;99.90
18502;DHT22;68437;52.236;5.710;2024-02-28T01:55:05;3.00;99.90
18502;DHT22;68437;52.236;5.710;2024-02-28T01:57:33;3.00;99.90
18502;DHT22;68437;52.236;5.710;2024-02-28T02:00:02;3.00;99.90
18502;DHT22;68437;52.236;5.710;2024-02-28T02:02:31;3.00;99.90
18502;DHT22;68437;52.236;5.710;2024-02-28T02:04:58;2.90;99.90
18502;DHT22;68437;52.236;5.710;2024-02-28T02:07:25;2.90;99.90
18502;DHT22;68437;52.236;5.710;2024-02-28T02:09:52;2.90;99.90
18502;DHT22;68437;52.236;5.710;2024-02-28T02:12:22;2.80;99.90
18502;DHT22;68437;52.236;5.710;2024-02-28T02:14:49;2.80;99.90
18502;DHT22;68437;52.236;5.710;2024-02-28T02:17:16;2.90;99.90
18502;DHT22;68437;52.236;5.710;2024-02-28T02:19:44;2.90;99.90
18502;DHT22;68437;52.236;5.710;2024-02-28T02:22:13;2.80;99.90
18502;DHT22;68437;52.236;5.710;2024-02-28T02:24:41;2.80;99.90
18502;DHT22;68437;52.236;5.710;2024-02-28T02:27:08;2.70;99.90
18502;DHT22;68437;52.236;5.710;2024-02-28T02:29:35;2.80;99.90
18502;DHT22;68437;52.236;5.710;2024-02-28T02:32:02;2.70;99.90
18502;DHT22;68437;52.236;5.710;2024-02-28T02:34:29;2.70;99.90
18502;DHT22;68437;52.236;5.710;2024-02-28T02:36:56;2.70;99.90
18502;DHT22;68437;52.236;5.710;2024-02-28T02:39:23;2.70;99.90
18502;DHT22;68437;52.236;5.710;2024-02-28T02:41:51;2.60;99.90
18502;DHT22;68437;52.236;5.710;2024-02-28T02:44:18;2.60;99.90
18502;DHT22;68437;52.236;5.710;2024-02-28T02:46:44;2.70;99.90
18502;DHT22;68437;52.236;5.710;2024-02-28T02:49:11;2.60;99.90
18502;DHT22;68437;52.236;5.710;2024-02-28T02:51:38;2.60;99.90
18502;DHT22;68437;52.236;5.710;2024-02-28T02:54:05;2.60;99.90
18502;DHT22;68437;52.236;5.710;2024-02-28T02:56:31;2.70;99.90
18502;DHT22;68437;52.236;5.710;2024-02-28T02:59:00;2.70;99.90
18502;DHT22;68437;52.236;5.710;2024-02-28T03:01:26;2.70;99.90
18502;DHT22;68437;52.236;5.710;2024-02-28T03:03:53;2.70;99.90
18502;DHT22;68437;52.236;5.710;2024-02-28T03:06:20;2.60;99.90
18502;DHT22;68437;52.236;5.710;2024-02-28T03:08:49;2.60;99.90
18502;DHT22;68437;52.236;5.710;2024-02-28T03:11:16;2.60;99.90
18502;DHT22;68437;52.236;5.710;2024-02-28T03:13:43;2.50;99.90
18502;DHT22;68437;52.236;5.710;2024-02-28T03:16:11;2.40;99.90
18502;DHT22;68437;52.236;5.710;2024-02-28T03:18:37;2.40;99.90
18502;DHT22;68437;52.236;5.710;2024-02-28T03:21:04;2.40;99.90
18502;DHT22;68437;52.236;5.710;2024-02-28T03:23:32;2.40;99.90
18502;DHT22;68437;52.236;5.710;2024-02-28T03:26:01;2.40;99.90
18502;DHT22;68437;52.236;5.710;2024-02-28T03:28:28;2.40;99.90
18502;DHT22;68437;52.236;5.710;2024-02-28T03:30:55;2.40;99.90
18502;DHT22;68437;52.236;5.710;2024-02-28T03:33:23;2.40;99.90
18502;DHT22;68437;52.236;5.710;2024-02-28T03:35:51;2.40;99.90
18502;DHT22;68437;52.236;5.710;2024-02-28T03:38:18;2.30;99.90
18502;DHT22;68437;52.236;5.710;2024-02-28T03:40:45;2.30;99.90
18502;DHT22;68437;52.236;5.710;2024-02-28T03:43:11;2.30;99.90
18502;DHT22;68437;52.236;5.710;2024-02-28T03:45:39;2.40;99.90
18502;DHT22;68437;52.236;5.710;2024-02-28T03:48:06;2.40;99.90
18502;DHT22;68437;52.236;5.710;2024-02-28T03:50:34;2.50;99.90
18502;DHT22;68437;52.236;5.710;2024-02-28T03:53:01;2.40;99.90
18502;DHT22;68437;52.236;5.710;2024-02-28T03:55:28;2.50;99.90
18502;DHT22;68437;52.236;5.710;2024-02-28T03:57:55;2.50;99.90
18502;DHT22;68437;52.236;5.710;2024-02-28T04:00:21;2.40;99.90
18502;DHT22;68437;52.236;5.710;2024-02-28T04:02:48;2.50;99.90
18502;DHT22;68437;52.236;5.710;2024-02-28T04:05:15;2.50;99.90
18502;DHT22;68437;52.236;5.710;2024-02-28T04:07:44;2.50;99.90
18502;DHT22;68437;52.236;5.710;2024-02-28T04:10:11;2.60;99.90
18502;DHT22;68437;52.236;5.710;2024-02-28T04:12:38;2.60;99.90
18502;DHT22;68437;52.236;5.710;2024-02-28T04:15:05;2.60;99.90
18502;DHT22;68437;52.236;5.710;2024-02-28T04:17:32;2.70;99.90
18502;DHT22;68437;52.236;5.710;2024-02-28T04:19:59;2.70;99.90
18502;DHT22;68437;52.236;5.710;2024-02-28T04:22:29;2.70;99.90
18502;DHT22;68437;52.236;5.710;2024-02-28T04:24:58;2.70;99.90
18502;DHT22;68437;52.236;5.710;2024-02-28T04:27:24;2.80;99.90
18502;DHT22;68437;52.236;5.710;2024-02-28T04:29:51;2.90;99.90
18502;DHT22;68437;52.236;5.710;2024-02-28T04:32:18;2.80;99.90
18502;DHT22;68437;52.236;5.710;2024-02-28T04:34:45;2.90;99.90
18502;DHT22;68437;52.236;5.710;2024-02-28T04:37:11;2.90;99.90
18502;DHT22;68437;52.236;5.710;2024-02-28T04:39:38;2.90;99.90
18502;DHT22;68437;52.236;5.710;2024-02-28T04:42:07;2.90;99.90
18502;DHT22;68437;52.236;5.710;2024-02-28T04:44:34;2.80;99.90
18502;DHT22;68437;52.236;5.710;2024-02-28T04:47:01;2.90;99.90
18502;DHT22;68437;52.236;5.710;2024-02-28T04:49:28;2.80;99.90
18502;DHT22;68437;52.236;5.710;2024-02-28T04:51:55;2.80;99.90
18502;DHT22;68437;52.236;5.710;2024-02-28T04:54:22;2.90;99.90
18502;DHT22;68437;52.236;5.710;2024-02-28T04:56:49;2.90;99.90
18502;DHT22;68437;52.236;5.710;2024-02-28T04:59:18;2.80;99.90
18502;DHT22;68437;52.236;5.710;2024-02-28T05:01:44;2.80;99.90
18502;DHT22;68437;52.236;5.710;2024-02-28T05:04:11;2.80;99.90
18502;DHT22;68437;52.236;5.710;2024-02-28T05:06:38;2.80;99.90
18502;DHT22;68437;52.236;5.710;2024-02-28T05:09:05;2.80;99.90
18502;DHT22;68437;52.236;5.710;2024-02-28T05:11:32;2.80;99.90
18502;DHT22;68437;52.236;5.710;2024-02-28T05:13:58;2.70;99.90
18502;DHT22;68437;52.236;5.710;2024-02-28T05:16:27;2.80;99.90
18502;DHT22;68437;52.236;5.710;2024-02-28T05:18:53;2.70;99.90
18502;DHT22;68437;52.236;5.710;2024-02-28T05:21:22;2.80;99.90
18502;DHT22;68437;52.236;5.710;2024-02-28T05:23:48;2.70;99.90
18502;DHT22;68437;52.236;5.710;2024-02-28T05:26:15;2.70;99.90
18502;DHT22;68437;52.236;5.710;2024-02-28T05:28:42;2.70;99.90
18502;DHT22;68437;52.236;5.710;2024-02-28T05:31:21;2.70;99.90
18502;DHT22;68437;52.236;5.710;2024-02-28T05:33:50;2.70;99.90
18502;DHT22;68437;52.236;5.710;2024-02-28T05:36:18;2.70;99.90
18502;DHT22;68437;52.236;5.710;2024-02-28T05:38:45;2.80;99.90
18502;DHT22;68437;52.236;5.710;2024-02-28T05:41:11;2.80;99.90
18502;DHT22;68437;52.236;5.710;2024-02-28T05:43:40;2.80;99.90
18502;DHT22;68437;52.236;5.710;2024-02-28T05:46:07;2.80;99.90
18502;DHT22;68437;52.236;5.710;2024-02-28T05:48:34;2.80;99.90
18502;DHT22;68437;52.236;5.710;2024-02-28T05:51:02;2.80;99.90
18502;DHT22;68437;52.236;5.710;2024-02-28T05:53:29;2.80;99.90
18502;DHT22;68437;52.236;5.710;2024-02-28T05:55:58;2.90;99.90
18502;DHT22;68437;52.236;5.710;2024-02-28T05:58:25;3.00;99.90
18502;DHT22;68437;52.236;5.710;2024-02-28T06:00:52;3.00;99.90
18502;DHT22;68437;52.236;5.710;2024-02-28T06:03:18;2.90;99.90
18502;DHT22;68437;52.236;5.710;2024-02-28T06:05:45;3.00;99.90
18502;DHT22;68437;52.236;5.710;2024-02-28T06:08:14;3.00;99.90
18502;DHT22;68437;52.236;5.710;2024-02-28T06:10:41;3.00;99.90
18502;DHT22;68437;52.236;5.710;2024-02-28T06:13:08;3.10;99.90
18502;DHT22;68437;52.236;5.710;2024-02-28T06:15:35;3.10;99.90
18502;DHT22;68437;52.236;5.710;2024-02-28T06:18:02;3.10;99.90
18502;DHT22;68437;52.236;5.710;2024-02-28T06:20:30;3.10;99.90
18502;DHT22;68437;52.236;5.710;2024-02-28T06:22:57;3.00;99.90
18502;DHT22;68437;52.236;5.710;2024-02-28T06:25:25;3.00;99.90
18502;DHT22;68437;52.236;5.710;2024-02-28T06:27:53;3.00;99.90
18502;DHT22;68437;52.236;5.710;2024-02-28T06:30:20;3.00;99.90
18502;DHT22;68437;52.236;5.710;2024-02-28T06:32:47;3.00;99.90
18502;DHT22;68437;52.236;5.710;2024-02-28T06:35:14;3.00;99.90
18502;DHT22;68437;52.236;5.710;2024-02-28T06:37:41;2.90;99.90
18502;DHT22;68437;52.236;5.710;2024-02-28T06:40:14;2.90;99.90
18502;DHT22;68437;52.236;5.710;2024-02-28T06:42:42;3.00;99.90
18502;DHT22;68437;52.236;5.710;2024-02-28T06:45:09;3.00;99.90
18502;DHT22;68437;52.236;5.710;2024-02-28T06:47:36;3.00;99.90
18502;DHT22;68437;52.236;5.710;2024-02-28T06:50:03;3.00;99.90
18502;DHT22;68437;52.236;5.710;2024-02-28T06:52:30;3.00;99.90
18502;DHT22;68437;52.236;5.710;2024-02-28T06:54:57;3.00;99.90
18502;DHT22;68437;52.236;5.710;2024-02-28T06:57:25;3.10;99.90
18502;DHT22;68437;52.236;5.710;2024-02-28T06:59:53;3.10;99.90
18502;DHT22;68437;52.236;5.710;2024-02-28T07:02:20;3.10;99.90
18502;DHT22;68437;52.236;5.710;2024-02-28T07:04:47;3.10;99.90
18502;DHT22;68437;52.236;5.710;2024-02-28T07:07:14;3.10;99.90
18502;DHT22;68437;52.236;5.710;2024-02-28T07:09:40;3.10;99.90
18502;DHT22;68437;52.236;5.710;2024-02-28T07:12:07;3.10;99.90
18502;DHT22;68437;52.236;5.710;2024-02-28T07:14:34;3.20;99.90
18502;DHT22;68437;52.236;5.710;2024-02-28T07:17:08;3.20;99.90
18502;DHT22;68437;52.236;5.710;2024-02-28T07:19:36;3.20;99.90
18502;DHT22;68437;52.236;5.710;2024-02-28T07:22:05;3.20;99.90
18502;DHT22;68437;52.236;5.710;2024-02-28T07:24:32;3.30;99.90
18502;DHT22;68437;52.236;5.710;2024-02-28T07:26:59;3.30;99.90
18502;DHT22;68437;52.236;5.710;2024-02-28T07:29:25;3.40;99.90
18502;DHT22;68437;52.236;5.710;2024-02-28T07:31:52;3.30;99.90
18502;DHT22;68437;52.236;5.710;2024-02-28T07:34:20;3.30;99.90
18502;DHT22;68437;52.236;5.710;2024-02-28T07:36:47;3.30;99.90
18502;DHT22;68437;52.236;5.710;2024-02-28T07:39:14;3.30;99.90
18502;DHT22;68437;52.236;5.710;2024-02-28T07:41:43;3.40;99.90
18502;DHT22;68437;52.236;5.710;2024-02-28T07:44:10;3.40;99.90
18502;DHT22;68437;52.236;5.710;2024-02-28T07:46:37;3.40;99.90
18502;DHT22;68437;52.236;5.710;2024-02-28T07:49:05;3.40;99.90
18502;DHT22;68437;52.236;5.710;2024-02-28T07:51:33;3.40;99.90
18502;DHT22;68437;52.236;5.710;2024-02-28T07:54:00;3.50;99.90
18502;DHT22;68437;52.236;5.710;2024-02-28T07:56:26;3.60;99.90
18502;DHT22;68437;52.236;5.710;2024-02-28T07:58:53;3.60;99.90
18502;DHT22;68437;52.236;5.710;2024-02-28T08:01:20;3.60;99.90
18502;DHT22;68437;52.236;5.710;2024-02-28T08:03:48;3.60;99.90
18502;DHT22;68437;52.236;5.710;2024-02-28T08:06:15;3.70;99.90
18502;DHT22;68437;52.236;5.710;2024-02-28T08:08:45;3.70;99.90
18502;DHT22;68437;52.236;5.710;2024-02-28T08:11:12;3.70;99.90
18502;DHT22;68437;52.236;5.710;2024-02-28T08:13:39;3.80;99.90
18502;DHT22;68437;52.236;5.710;2024-02-28T08:16:06;3.80;99.90
18502;DHT22;68437;52.236;5.710;2024-02-28T08:18:34;3.80;99.90
18502;DHT22;68437;52.236;5.710;2024-02-28T08:21:01;3.80;99.90
18502;DHT22;68437;52.236;5.710;2024-02-28T08:23:29;4.00;99.90
18502;DHT22;68437;52.236;5.710;2024-02-28T08:25:57;4.00;99.90
18502;DHT22;68437;52.236;5.710;2024-02-28T08:28:24;4.10;99.90
18502;DHT22;68437;52.236;5.710;2024-02-28T08:30:51;4.10;99.90
18502;DHT22;68437;52.236;5.710;2024-02-28T08:33:17;4.20;99.90
18502;DHT22;68437;52.236;5.710;2024-02-28T08:35:44;4.30;99.90
18502;DHT22;68437;52.236;5.710;2024-02-28T08:38:11;4.30;99.90
18502;DHT22;68437;52.236;5.710;2024-02-28T08:40:38;4.30;99.90
18502;DHT22;68437;52.236;5.710;2024-02-28T08:43:06;4.40;99.90
18502;DHT22;68437;52.236;5.710;2024-02-28T08:45:34;4.50;99.90
18502;DHT22;68437;52.236;5.710;2024-02-28T08:48:01;4.60;99.90
18502;DHT22;68437;52.236;5.710;2024-02-28T08:50:28;4.70;99.90
18502;DHT22;68437;52.236;5.710;2024-02-28T08:52:55;4.70;99.90
18502;DHT22;68437;52.236;5.710;2024-02-28T08:55:22;4.80;99.90
18502;DHT22;68437;52.236;5.710;2024-02-28T08:57:49;4.90;99.90
18502;DHT22;68437;52.236;5.710;2024-02-28T09:00:18;4.90;99.90
18502;DHT22;68437;52.236;5.710;2024-02-28T09:02:44;4.90;99.90
18502;DHT22;68437;52.236;5.710;2024-02-28T09:05:11;5.00;99.90
18502;DHT22;68437;52.236;5.710;2024-02-28T09:07:38;5.00;99.90
18502;DHT22;68437;52.236;5.710;2024-02-28T09:10:06;5.00;99.90
18502;DHT22;68437;52.236;5.710;2024-02-28T09:12:33;4.90;99.90
18502;DHT22;68437;52.236;5.710;2024-02-28T09:14:59;4.90;99.90
18502;DHT22;68437;52.236;5.710;2024-02-28T09:17:27;4.90;99.90
18502;DHT22;68437;52.236;5.710;2024-02-28T09:19:54;4.90;99.90
18502;DHT22;68437;52.236;5.710;2024-02-28T09:22:22;4.90;99.90
18502;DHT22;68437;52.236;5.710;2024-02-28T09:24:50;5.00;99.90
18502;DHT22;68437;52.236;5.710;2024-02-28T09:27:19;5.00;99.90
18502;DHT22;68437;52.236;5.710;2024-02-28T09:29:46;5.10;99.90
18502;DHT22;68437;52.236;5.710;2024-02-28T09:32:13;5.10;99.90
18502;DHT22;68437;52.236;5.710;2024-02-28T09:34:41;5.10;99.90
18502;DHT22;68437;52.236;5.710;2024-02-28T09:37:08;5.20;99.90
18502;DHT22;68437;52.236;5.710;2024-02-28T09:39:37;5.20;99.90
18502;DHT22;68437;52.236;5.710;2024-02-28T09:42:05;5.30;99.90
18502;DHT22;68437;52.236;5.710;2024-02-28T09:44:34;5.40;99.90
18502;DHT22;68437;52.236;5.710;2024-02-28T09:47:01;5.40;99.90
18502;DHT22;68437;52.236;5.710;2024-02-28T09:49:28;5.50;99.90
18502;DHT22;68437;52.236;5.710;2024-02-28T09:51:59;5.50;99.90
18502;DHT22;68437;52.236;5.710;2024-02-28T09:54:26;5.60;99.90
18502;DHT22;68437;52.236;5.710;2024-02-28T09:56:53;5.70;99.90
18502;DHT22;68437;52.236;5.710;2024-02-28T09:59:22;5.80;99.90
18502;DHT22;68437;52.236;5.710;2024-02-28T10:01:55;5.90;99.90
18502;DHT22;68437;52.236;5.710;2024-02-28T10:04:23;6.00;99.90
18502;DHT22;68437;52.236;5.710;2024-02-28T10:06:51;6.10;99.90
18502;DHT22;68437;52.236;5.710;2024-02-28T10:09:20;6.20;99.90
18502;DHT22;68437;52.236;5.710;2024-02-28T10:11:46;6.30;99.90
18502;DHT22;68437;52.236;5.710;2024-02-28T10:14:17;6.40;99.90
18502;DHT22;68437;52.236;5.710;2024-02-28T10:16:45;6.50;99.90
18502;DHT22;68437;52.236;5.710;2024-02-28T10:19:11;6.70;99.90
18502;DHT22;68437;52.236;5.710;2024-02-28T10:21:38;6.70;99.90
18502;DHT22;68437;52.236;5.710;2024-02-28T10:24:05;6.80;99.90
18502;DHT22;68437;52.236;5.710;2024-02-28T10:26:41;6.80;99.90
18502;DHT22;68437;52.236;5.710;2024-02-28T10:29:08;6.90;99.90
18502;DHT22;68437;52.236;5.710;2024-02-28T10:31:35;6.90;99.90
18502;DHT22;68437;52.236;5.710;2024-02-28T10:34:04;6.90;99.90
18502;DHT22;68437;52.236;5.710;2024-02-28T10:36:32;7.00;99.90
18502;DHT22;68437;52.236;5.710;2024-02-28T10:39:00;7.00;99.90
18502;DHT22;68437;52.236;5.710;2024-02-28T10:41:28;7.10;99.90
18502;DHT22;68437;52.236;5.710;2024-02-28T10:43:57;7.20;99.90
18502;DHT22;68437;52.236;5.710;2024-02-28T10:46:26;7.30;99.90
18502;DHT22;68437;52.236;5.710;2024-02-28T10:48:52;7.30;99.90
18502;DHT22;68437;52.236;5.710;2024-02-28T10:51:23;7.30;99.90
18502;DHT22;68437;52.236;5.710;2024-02-28T10:54:07;7.30;99.90
18502;DHT22;68437;52.236;5.710;2024-02-28T10:56:35;7.20;99.90
18502;DHT22;68437;52.236;5.710;2024-02-28T10:59:06;7.30;99.90
18502;DHT22;68437;52.236;5.710;2024-02-28T11:01:34;7.40;99.90
18502;DHT22;68437;52.236;5.710;2024-02-28T11:04:01;7.40;99.90
18502;DHT22;68437;52.236;5.710;2024-02-28T11:06:29;7.50;99.90
18502;DHT22;68437;52.236;5.710;2024-02-28T11:08:59;7.50;99.90
18502;DHT22;68437;52.236;5.710;2024-02-28T11:11:30;7.50;99.90
18502;DHT22;68437;52.236;5.710;2024-02-28T11:13:57;7.50;99.90
18502;DHT22;68437;52.236;5.710;2024-02-28T11:16:28;7.60;99.90
18502;DHT22;68437;52.236;5.710;2024-02-28T11:18:55;7.60;99.90
18502;DHT22;68437;52.236;5.710;2024-02-28T11:21:26;7.70;99.90
18502;DHT22;68437;52.236;5.710;2024-02-28T11:23:57;7.70;99.90
18502;DHT22;68437;52.236;5.710;2024-02-28T11:26:25;7.70;99.90
18502;DHT22;68437;52.236;5.710;2024-02-28T11:28:53;7.80;99.90
18502;DHT22;68437;52.236;5.710;2024-02-28T11:31:20;7.80;99.90
18502;DHT22;68437;52.236;5.710;2024-02-28T11:33:48;7.80;99.90
18502;DHT22;68437;52.236;5.710;2024-02-28T11:36:15;8.00;99.90
18502;DHT22;68437;52.236;5.710;2024-02-28T11:38:43;8.00;99.90
18502;DHT22;68437;52.236;5.710;2024-02-28T11:41:10;8.10;99.90
18502;DHT22;68437;52.236;5.710;2024-02-28T11:43:37;8.10;99.90
18502;DHT22;68437;52.236;5.710;2024-02-28T11:46:08;8.20;99.90
18502;DHT22;68437;52.236;5.710;2024-02-28T11:48:36;8.30;99.90
18502;DHT22;68437;52.236;5.710;2024-02-28T11:51:04;8.30;99.90
18502;DHT22;68437;52.236;5.710;2024-02-28T11:53:31;8.40;99.90
18502;DHT22;68437;52.236;5.710;2024-02-28T11:55:57;8.50;99.90
18502;DHT22;68437;52.236;5.710;2024-02-28T11:58:25;8.50;99.90
18502;DHT22;68437;52.236;5.710;2024-02-28T12:00:52;8.50;99.90
18502;DHT22;68437;52.236;5.710;2024-02-28T12:03:23;8.60;99.90
18502;DHT22;68437;52.236;5.710;2024-02-28T12:05:51;8.60;99.90
18502;DHT22;68437;52.236;5.710;2024-02-28T12:08:19;8.70;99.90
18502;DHT22;68437;52.236;5.710;2024-02-28T12:10:46;8.80;99.90
18502;DHT22;68437;52.236;5.710;2024-02-28T12:13:16;8.80;99.90
18502;DHT22;68437;52.236;5.710;2024-02-28T12:15:43;8.90;99.90
18502;DHT22;68437;52.236;5.710;2024-02-28T12:18:11;9.00;99.90
18502;DHT22;68437;52.236;5.710;2024-02-28T12:20:38;9.00;99.90
18502;DHT22;68437;52.236;5.710;2024-02-28T12:23:05;8.90;99.90
18502;DHT22;68437;52.236;5.710;2024-02-28T12:25:35;8.90;99.90
18502;DHT22;68437;52.236;5.710;2024-02-28T12:28:01;8.80;99.90
18502;DHT22;68437;52.236;5.710;2024-02-28T12:30:30;8.80;99.90
18502;DHT22;68437;52.236;5.710;2024-02-28T12:32:57;8.80;99.90
18502;DHT22;68437;52.236;5.710;2024-02-28T12:35:25;8.80;99.90
18502;DHT22;68437;52.236;5.710;2024-02-28T12:37:52;9.00;99.90
18502;DHT22;68437;52.236;5.710;2024-02-28T12:40:19;9.20;99.90
18502;DHT22;68437;52.236;5.710;2024-02-28T12:42:47;9.40;99.90
18502;DHT22;68437;52.236;5.710;2024-02-28T12:45:14;9.60;99.90
18502;DHT22;68437;52.236;5.710;2024-02-28T12:47:40;9.60;99.90
18502;DHT22;68437;52.236;5.710;2024-02-28T12:50:08;9.60;99.90
18502;DHT22;68437;52.236;5.710;2024-02-28T12:52:36;9.70;99.90
18502;DHT22;68437;52.236;5.710;2024-02-28T12:55:03;9.70;99.90
18502;DHT22;68437;52.236;5.710;2024-02-28T12:57:30;9.70;99.90
18502;DHT22;68437;52.236;5.710;2024-02-28T12:59:58;9.70;99.90
18502;DHT22;68437;52.236;5.710;2024-02-28T13:02:25;9.60;99.90
18502;DHT22;68437;52.236;5.710;2024-02-28T13:04:52;9.50;99.90
18502;DHT22;68437;52.236;5.710;2024-02-28T13:07:21;9.40;99.90
18502;DHT22;68437;52.236;5.710;2024-02-28T13:09:48;9.20;99.90
18502;DHT22;68437;52.236;5.710;2024-02-28T13:12:15;9.10;99.90
18502;DHT22;68437;52.236;5.710;2024-02-28T13:14:42;9.00;99.90
18502;DHT22;68437;52.236;5.710;2024-02-28T13:17:11;8.90;99.90
18502;DHT22;68437;52.236;5.710;2024-02-28T13:19:37;8.70;99.90
18502;DHT22;68437;52.236;5.710;2024-02-28T13:22:05;8.70;99.90
18502;DHT22;68437;52.236;5.710;2024-02-28T13:24:32;8.70;99.90
18502;DHT22;68437;52.236;5.710;2024-02-28T13:27:01;8.70;99.90
18502;DHT22;68437;52.236;5.710;2024-02-28T13:29:27;8.80;99.90
18502;DHT22;68437;52.236;5.710;2024-02-28T13:31:54;8.70;99.90
18502;DHT22;68437;52.236;5.710;2024-02-28T13:34:22;8.70;99.90
18502;DHT22;68437;52.236;5.710;2024-02-28T13:36:49;8.70;99.90
18502;DHT22;68437;52.236;5.710;2024-02-28T13:39:17;8.70;99.90
18502;DHT22;68437;52.236;5.710;2024-02-28T13:41:43;8.70;99.90
18502;DHT22;68437;52.236;5.710;2024-02-28T13:44:10;8.70;99.90
18502;DHT22;68437;52.236;5.710;2024-02-28T13:46:37;8.80;99.90
18502;DHT22;68437;52.236;5.710;2024-02-28T13:49:09;8.80;99.90
18502;DHT22;68437;52.236;5.710;2024-02-28T13:51:37;8.80;99.90
18502;DHT22;68437;52.236;5.710;2024-02-28T13:54:04;8.90;99.90
18502;DHT22;68437;52.236;5.710;2024-02-28T13:56:31;8.90;99.90
18502;DHT22;68437;52.236;5.710;2024-02-28T13:58:57;8.90;99.90
18502;DHT22;68437;52.236;5.710;2024-02-28T14:01:24;8.90;99.90
18502;DHT22;68437;52.236;5.710;2024-02-28T14:03:51;8.90;99.90
18502;DHT22;68437;52.236;5.710;2024-02-28T14:06:19;8.90;99.90
18502;DHT22;68437;52.236;5.710;2024-02-28T14:08:47;9.00;99.90
18502;DHT22;68437;52.236;5.710;2024-02-28T14:11:14;9.00;99.90
18502;DHT22;68437;52.236;5.710;2024-02-28T14:13:43;9.00;99.90
18502;DHT22;68437;52.236;5.710;2024-02-28T14:16:09;9.00;99.90
18502;DHT22;68437;52.236;5.710;2024-02-28T14:18:36;9.00;99.90
18502;DHT22;68437;52.236;5.710;2024-02-28T14:21:03;9.00;99.90
18502;DHT22;68437;52.236;5.710;2024-02-28T14:23:30;9.00;99.90
18502;DHT22;68437;52.236;5.710;2024-02-28T14:25:58;9.10;99.90
18502;DHT22;68437;52.236;5.710;2024-02-28T14:28:25;9.00;99.90
18502;DHT22;68437;52.236;5.710;2024-02-28T14:30:52;9.10;99.90
18502;DHT22;68437;52.236;5.710;2024-02-28T14:33:19;9.20;99.90
18502;DHT22;68437;52.236;5.710;2024-02-28T14:35:47;9.10;99.90
18502;DHT22;68437;52.236;5.710;2024-02-28T14:38:13;9.10;99.90
18502;DHT22;68437;52.236;5.710;2024-02-28T14:40:40;9.10;99.90
18502;DHT22;68437;52.236;5.710;2024-02-28T14:43:09;9.10;99.90
18502;DHT22;68437;52.236;5.710;2024-02-28T14:45:36;9.00;99.90
18502;DHT22;68437;52.236;5.710;2024-02-28T14:48:03;9.00;99.90
18502;DHT22;68437;52.236;5.710;2024-02-28T14:50:31;9.00;99.90
18502;DHT22;68437;52.236;5.710;2024-02-28T14:52:58;9.00;99.90
18502;DHT22;68437;52.236;5.710;2024-02-28T14:55:25;9.00;99.90
18502;DHT22;68437;52.236;5.710;2024-02-28T14:57:51;9.00;99.90
18502;DHT22;68437;52.236;5.710;2024-02-28T15:00:20;9.00;99.90
18502;DHT22;68437;52.236;5.710;2024-02-28T15:02:47;9.00;99.90
18502;DHT22;68437;52.236;5.710;2024-02-28T15:05:13;9.00;99.90
18502;DHT22;68437;52.236;5.710;2024-02-28T15:07:40;9.00;99.90
18502;DHT22;68437;52.236;5.710;2024-02-28T15:10:08;9.00;99.90
18502;DHT22;68437;52.236;5.710;2024-02-28T15:12:35;9.00;99.90
18502;DHT22;68437;52.236;5.710;2024-02-28T15:15:04;9.00;99.90
18502;DHT22;68437;52.236;5.710;2024-02-28T15:17:33;9.00;99.90
18502;DHT22;68437;52.236;5.710;2024-02-28T15:20:00;9.00;99.90
18502;DHT22;68437;52.236;5.710;2024-02-28T15:22:28;9.00;99.90
18502;DHT22;68437;52.236;5.710;2024-02-28T15:24:56;9.10;99.90
18502;DHT22;68437;52.236;5.710;2024-02-28T15:27:22;9.00;99.90
18502;DHT22;68437;52.236;5.710;2024-02-28T15:29:50;9.00;99.90
18502;DHT22;68437;52.236;5.710;2024-02-28T15:32:16;8.90;99.90
18502;DHT22;68437;52.236;5.710;2024-02-28T15:34:44;8.90;99.90
18502;DHT22;68437;52.236;5.710;2024-02-28T15:37:11;8.90;99.90
18502;DHT22;68437;52.236;5.710;2024-02-28T15:39:38;8.90;99.90
18502;DHT22;68437;52.236;5.710;2024-02-28T15:42:06;8.80;99.90
18502;DHT22;68437;52.236;5.710;2024-02-28T15:44:33;8.90;99.90
18502;DHT22;68437;52.236;5.710;2024-02-28T15:47:00;8.80;99.90